»·PEaware :: N88HQ KBUR-KLAS

N88HQ :: KBUR-KLAS

FLIGHT INFORMATION

Flight Status: Arrived
Operator: Privately registered:
United States
More flights under this callsign
Pilot: Norbert L. (24124)
Aircraft: CESSNA 172 SKYHAWK
(C172)
More flights by this aircraft type
Origin: KBUR Bob Hope-Burbank
United States
Destination: KLAS McCarran Intl
United States
More flights between these airports :: More routes between these airports
Route: VNY3 DAG CRESO4
File this flight plan on PilotEdge
Remarks:
Altitude:
(Current/Filed)
10,000ft
Speed:
(Current/Filed)
120kts
Departed: 07-Apr-21 04:03 PM
Arrived: 07-Apr-21 05:50 PM
Distance/Time
Traveled:
195nm/1:47
Distance/Time
To Go:
Arrived

Flight Plot

Page will automatically refresh every two minutes.

Flight plan parsing failed; only flown route is shown


Map Options




Map Legend


Flown Route
Filed Route
Departure Airport
Arrival Airport
Navaid (VOR, NDB)
Fix

Horizontal Profiles

Position Reports

Time Latitude Longitude Heading Altitude Ground
Speed
07-Apr-21 15:47 34.196224 -118.367802 1 721ft 0kts
07-Apr-21 15:48 34.196224 -118.367802 1 721ft 0kts
07-Apr-21 15:49 34.196224 -118.367802 1 721ft 0kts
07-Apr-21 15:50 34.196224 -118.367802 1 721ft 0kts
07-Apr-21 15:51 34.196224 -118.367802 1 721ft 0kts
07-Apr-21 15:52 34.196224 -118.367802 1 721ft 0kts
07-Apr-21 15:53 34.196224 -118.367802 1 721ft 0kts
07-Apr-21 15:55 34.196224 -118.367802 1 721ft 0kts
07-Apr-21 15:55 34.196224 -118.367802 1 721ft 0kts
07-Apr-21 15:56 34.196597 -118.367799 269 722ft 2kts
07-Apr-21 15:57 34.196466 -118.367270 92 722ft 7kts
07-Apr-21 15:58 34.197082 -118.368909 311 724ft 0kts
07-Apr-21 15:59 34.197082 -118.368909 311 724ft 0kts
07-Apr-21 16:00 34.197871 -118.369037 49 725ft 16kts
07-Apr-21 16:01 34.197879 -118.367577 91 725ft 34kts
07-Apr-21 16:02 34.195004 -118.344995 143 1376ft 78kts
07-Apr-21 16:03 34.176896 -118.360545 230 2116ft 95kts
07-Apr-21 16:04 34.161440 -118.387561 230 2820ft 98kts
07-Apr-21 16:05 34.146433 -118.413919 229 3558ft 90kts
07-Apr-21 16:06 34.158998 -118.434517 344 4299ft 100kts
07-Apr-21 16:07 34.186015 -118.442776 345 4992ft 101kts
07-Apr-21 16:08 34.211609 -118.452510 344 5728ft 91kts
07-Apr-21 16:09 34.234254 -118.462219 345 6431ft 82kts
07-Apr-21 16:10 34.255226 -118.468068 18 7125ft 76kts
07-Apr-21 16:11 34.253318 -118.442259 105 7807ft 85kts
07-Apr-21 16:12 34.255124 -118.427133 324 8185ft 67kts
07-Apr-21 16:13 34.270564 -118.410715 24 8583ft 87kts
07-Apr-21 16:14 34.291052 -118.389161 32 8928ft 102kts
07-Apr-21 16:15 34.312568 -118.366126 29 9326ft 103kts
07-Apr-21 16:16 34.334969 -118.344009 26 9722ft 104kts
07-Apr-21 16:17 34.357900 -118.322063 26 10116ft 105kts
07-Apr-21 16:18 34.380162 -118.300796 24 10443ft 101kts
07-Apr-21 16:19 34.401917 -118.279830 23 10880ft 95kts
07-Apr-21 16:20 34.423618 -118.259160 24 11057ft 111kts
07-Apr-21 16:21 34.449769 -118.234117 27 11043ft 126kts
07-Apr-21 16:22 34.477742 -118.207519 27 11041ft 129kts
07-Apr-21 16:23 34.506129 -118.180370 26 11001ft 130kts
07-Apr-21 16:24 34.534575 -118.153726 27 11001ft 128kts
07-Apr-21 16:25 34.562357 -118.126732 27 11001ft 128kts
07-Apr-21 16:26 34.589826 -118.099592 28 11003ft 128kts
07-Apr-21 16:27 34.617256 -118.072000 27 11003ft 128kts
07-Apr-21 16:28 34.635362 -118.035312 86 11001ft 145kts
07-Apr-21 16:29 34.635415 -117.986310 86 10996ft 145kts
07-Apr-21 16:30 34.637107 -117.937383 83 10992ft 145kts
07-Apr-21 16:31 34.643175 -117.889440 75 10987ft 143kts
07-Apr-21 16:32 34.648966 -117.841189 77 10980ft 144kts
07-Apr-21 16:33 34.654652 -117.793095 76 10983ft 143kts
07-Apr-21 16:34 34.659182 -117.744878 78 10988ft 143kts
07-Apr-21 16:35 34.666635 -117.697578 69 10993ft 142kts
07-Apr-21 16:36 34.677248 -117.651424 67 10998ft 141kts
07-Apr-21 16:37 34.690098 -117.607028 57 11003ft 137kts
07-Apr-21 16:38 34.702045 -117.561850 66 11007ft 141kts
07-Apr-21 16:39 34.714036 -117.516374 66 11007ft 141kts
07-Apr-21 16:40 34.726048 -117.470995 66 11007ft 141kts
07-Apr-21 16:41 34.738210 -117.424224 66 11007ft 146kts
07-Apr-21 16:42 34.750325 -117.377439 65 11007ft 144kts
07-Apr-21 16:43 34.762324 -117.330997 68 10999ft 144kts
07-Apr-21 16:44 34.773996 -117.284444 67 10994ft 143kts
07-Apr-21 16:45 34.786104 -117.238272 66 10985ft 143kts
07-Apr-21 16:46 34.798478 -117.191951 65 10973ft 144kts
07-Apr-21 16:47 34.810623 -117.145888 65 10959ft 142kts
07-Apr-21 16:48 34.822634 -117.099690 66 10944ft 143kts
07-Apr-21 16:49 34.834589 -117.053942 66 10932ft 140kts
07-Apr-21 16:50 34.846567 -117.009049 66 10923ft 138kts
07-Apr-21 16:51 34.858428 -116.964574 67 10918ft 137kts
07-Apr-21 16:52 34.870126 -116.920748 67 10914ft 135kts
07-Apr-21 16:53 34.881281 -116.877168 68 10913ft 133kts
07-Apr-21 16:54 34.892607 -116.834467 68 10914ft 133kts
07-Apr-21 16:55 34.904057 -116.790063 69 10913ft 139kts
07-Apr-21 16:56 34.915929 -116.745940 68 11014ft 137kts
07-Apr-21 16:57 34.927544 -116.700813 69 11014ft 140kts
07-Apr-21 16:58 34.939785 -116.655571 68 11014ft 141kts
07-Apr-21 16:59 34.952777 -116.610239 67 11014ft 141kts
07-Apr-21 17:00 34.966022 -116.565005 67 11015ft 142kts
07-Apr-21 17:01 34.981455 -116.520778 62 11017ft 142kts
07-Apr-21 17:02 34.999031 -116.477474 60 11019ft 142kts
07-Apr-21 17:03 35.017275 -116.434673 60 11021ft 142kts
07-Apr-21 17:04 35.035841 -116.392013 60 11024ft 142kts
07-Apr-21 17:05 35.054545 -116.349310 61 11024ft 143kts
07-Apr-21 17:06 35.072933 -116.306466 61 11022ft 142kts
07-Apr-21 17:07 35.091441 -116.263878 61 11022ft 142kts
07-Apr-21 17:08 35.110214 -116.221285 60 11021ft 142kts
07-Apr-21 17:09 35.129057 -116.178653 60 11021ft 141kts
07-Apr-21 17:10 35.147747 -116.136101 60 11021ft 141kts
07-Apr-21 17:11 35.166085 -116.094223 60 11021ft 142kts
07-Apr-21 17:12 35.185158 -116.051862 54 11021ft 141kts
07-Apr-21 17:13 35.206327 -116.011347 57 11021ft 142kts
07-Apr-21 17:14 35.225989 -115.969498 59 11022ft 142kts
07-Apr-21 17:15 35.244987 -115.927121 60 11022ft 142kts
07-Apr-21 17:16 35.263713 -115.884548 61 11024ft 142kts
07-Apr-21 17:17 35.282273 -115.841983 61 11027ft 141kts
07-Apr-21 17:18 35.301891 -115.796800 62 10632ft 157kts
07-Apr-21 17:19 35.328936 -115.756392 24 10128ft 157kts
07-Apr-21 17:20 35.360267 -115.723081 44 10103ft 144kts
07-Apr-21 17:21 35.388092 -115.687931 41 10082ft 144kts
07-Apr-21 17:22 35.415301 -115.652123 42 10081ft 143kts
07-Apr-21 17:23 35.442212 -115.616020 42 10081ft 143kts
07-Apr-21 17:24 35.469131 -115.579784 42 10081ft 143kts
07-Apr-21 17:25 35.495972 -115.543531 42 10082ft 143kts
07-Apr-21 17:26 35.522776 -115.507296 42 10082ft 143kts
07-Apr-21 17:27 35.549668 -115.470924 42 10082ft 143kts
07-Apr-21 17:28 35.576703 -115.435312 42 10082ft 142kts
07-Apr-21 17:29 35.603300 -115.398745 42 10082ft 143kts
07-Apr-21 17:30 35.630106 -115.362266 42 10082ft 144kts
07-Apr-21 17:31 35.656538 -115.325247 43 10079ft 143kts
07-Apr-21 17:32 35.683605 -115.289613 42 10079ft 143kts
07-Apr-21 17:33 35.710439 -115.253405 43 10079ft 143kts
07-Apr-21 17:34 35.737087 -115.217131 43 10079ft 143kts
07-Apr-21 17:35 35.763747 -115.180754 43 10077ft 143kts
07-Apr-21 17:36 35.790551 -115.144105 44 10072ft 144kts
07-Apr-21 17:37 35.817464 -115.107206 45 10067ft 145kts
07-Apr-21 17:38 35.845676 -115.071855 15 10057ft 142kts
07-Apr-21 17:39 35.886971 -115.060930 5 9571ft 156kts
07-Apr-21 17:40 35.929978 -115.051846 5 9080ft 158kts
07-Apr-21 17:41 35.973324 -115.043197 5 8590ft 158kts
07-Apr-21 17:42 36.017426 -115.034961 5 7936ft 166kts
07-Apr-21 17:43 36.063731 -115.027515 6 6950ft 168kts
07-Apr-21 17:44 36.109902 -115.021269 6 5961ft 166kts
07-Apr-21 17:45 36.151896 -115.029577 292 4927ft 155kts
07-Apr-21 17:46 36.162840 -115.077856 281 3914ft 142kts
07-Apr-21 17:47 36.171114 -115.125454 257 2903ft 140kts
07-Apr-21 17:48 36.139430 -115.145091 199 2195ft 128kts
07-Apr-21 17:49 36.127781 -115.151423 200 2042ft 0kts

Navigation Log

Ident Type
Flight plan parsing failed, navigation log unavailable